sensor_id;sensor_type;location;lat;lon;timestamp;pressure;altitude;pressure_sealevel;temperature;humidity
33781;BME280;20097;50.832;19.100;2023-02-16T00:04:47;99113.94;;;0.82;100.00
33781;BME280;20097;50.832;19.100;2023-02-16T00:09:53;99105.59;;;0.78;100.00
33781;BME280;20097;50.832;19.100;2023-02-16T00:15:00;99107.63;;;0.73;100.00
33781;BME280;20097;50.832;19.100;2023-02-16T00:20:08;99108.72;;;0.69;100.00
33781;BME280;20097;50.832;19.100;2023-02-16T00:25:18;99099.53;;;0.65;100.00
33781;BME280;20097;50.832;19.100;2023-02-16T00:30:23;99096.16;;;0.65;100.00
33781;BME280;20097;50.832;19.100;2023-02-16T00:35:27;99095.72;;;0.58;100.00
33781;BME280;20097;50.832;19.100;2023-02-16T00:40:33;99101.94;;;0.54;100.00
33781;BME280;20097;50.832;19.100;2023-02-16T00:45:40;99101.38;;;0.49;100.00
33781;BME280;20097;50.832;19.100;2023-02-16T00:50:46;99103.22;;;0.47;100.00
33781;BME280;20097;50.832;19.100;2023-02-16T00:55:54;99099.94;;;0.45;100.00
33781;BME280;20097;50.832;19.100;2023-02-16T01:01:05;99095.06;;;0.41;100.00
33781;BME280;20097;50.832;19.100;2023-02-16T01:06:11;99095.97;;;0.40;100.00
33781;BME280;20097;50.832;19.100;2023-02-16T01:11:34;99079.47;;;0.30;100.00
33781;BME280;20097;50.832;19.100;2023-02-16T01:16:41;99075.16;;;0.30;100.00
33781;BME280;20097;50.832;19.100;2023-02-16T01:21:45;99071.84;;;0.28;100.00
33781;BME280;20097;50.832;19.100;2023-02-16T01:26:51;99072.97;;;0.24;100.00
33781;BME280;20097;50.832;19.100;2023-02-16T01:31:56;99067.81;;;0.24;100.00
33781;BME280;20097;50.832;19.100;2023-02-16T01:37:01;99070.56;;;0.21;100.00
33781;BME280;20097;50.832;19.100;2023-02-16T01:42:22;99070.56;;;0.21;100.00
33781;BME280;20097;50.832;19.100;2023-02-16T01:47:38;99067.09;;;0.22;100.00
33781;BME280;20097;50.832;19.100;2023-02-16T01:52:52;99059.56;;;0.19;100.00
33781;BME280;20097;50.832;19.100;2023-02-16T01:58:03;99055.50;;;0.15;100.00
33781;BME280;20097;50.832;19.100;2023-02-16T02:03:13;99052.84;;;0.17;100.00
33781;BME280;20097;50.832;19.100;2023-02-16T02:08:44;99052.06;;;0.16;100.00
33781;BME280;20097;50.832;19.100;2023-02-16T02:13:57;99053.88;;;0.14;100.00
33781;BME280;20097;50.832;19.100;2023-02-16T02:19:03;99044.50;;;0.13;100.00
33781;BME280;20097;50.832;19.100;2023-02-16T02:30:10;99045.34;;;0.14;100.00
33781;BME280;20097;50.832;19.100;2023-02-16T02:35:34;99037.84;;;0.11;100.00
33781;BME280;20097;50.832;19.100;2023-02-16T02:40:57;99047.44;;;0.07;100.00
33781;BME280;20097;50.832;19.100;2023-02-16T02:46:11;99041.47;;;0.07;100.00
33781;BME280;20097;50.832;19.100;2023-02-16T02:51:21;99039.94;;;0.04;100.00
33781;BME280;20097;50.832;19.100;2023-02-16T02:56:34;99043.59;;;0.00;100.00
33781;BME280;20097;50.832;19.100;2023-02-16T03:02:14;99033.50;;;-0.03;100.00
33781;BME280;20097;50.832;19.100;2023-02-16T03:07:22;99046.50;;;-0.06;100.00
33781;BME280;20097;50.832;19.100;2023-02-16T03:12:48;99041.47;;;-0.08;100.00
33781;BME280;20097;50.832;19.100;2023-02-16T03:17:56;99031.22;;;-0.08;100.00
33781;BME280;20097;50.832;19.100;2023-02-16T03:23:18;99030.75;;;-0.14;100.00
33781;BME280;20097;50.832;19.100;2023-02-16T03:28:42;99037.53;;;-0.13;100.00
33781;BME280;20097;50.832;19.100;2023-02-16T03:34:06;99021.75;;;-0.21;100.00
33781;BME280;20097;50.832;19.100;2023-02-16T03:39:11;99026.25;;;-0.25;100.00
33781;BME280;20097;50.832;19.100;2023-02-16T03:44:16;99024.50;;;-0.24;100.00
33781;BME280;20097;50.832;19.100;2023-02-16T03:49:22;99016.00;;;-0.25;100.00
33781;BME280;20097;50.832;19.100;2023-02-16T03:54:27;99016.50;;;-0.34;100.00
33781;BME280;20097;50.832;19.100;2023-02-16T03:59:32;99009.81;;;-0.36;100.00
33781;BME280;20097;50.832;19.100;2023-02-16T04:04:38;99009.91;;;-0.38;100.00
33781;BME280;20097;50.832;19.100;2023-02-16T04:09:42;99009.44;;;-0.44;100.00
33781;BME280;20097;50.832;19.100;2023-02-16T04:14:46;99005.94;;;-0.43;100.00
33781;BME280;20097;50.832;19.100;2023-02-16T04:19:53;99001.84;;;-0.46;100.00
33781;BME280;20097;50.832;19.100;2023-02-16T04:24:57;98993.59;;;-0.51;100.00
33781;BME280;20097;50.832;19.100;2023-02-16T04:30:04;98988.47;;;-0.51;100.00
33781;BME280;20097;50.832;19.100;2023-02-16T04:35:12;98980.84;;;-0.52;100.00
33781;BME280;20097;50.832;19.100;2023-02-16T04:40:19;98980.75;;;-0.51;100.00
33781;BME280;20097;50.832;19.100;2023-02-16T04:45:23;98983.56;;;-0.55;100.00
33781;BME280;20097;50.832;19.100;2023-02-16T04:50:29;98994.28;;;-0.63;100.00
33781;BME280;20097;50.832;19.100;2023-02-16T04:55:34;98985.75;;;-0.63;100.00
33781;BME280;20097;50.832;19.100;2023-02-16T05:00:40;98973.38;;;-0.71;100.00
33781;BME280;20097;50.832;19.100;2023-02-16T05:05:46;98990.78;;;-0.62;100.00
33781;BME280;20097;50.832;19.100;2023-02-16T05:10:50;98984.38;;;-0.69;100.00
33781;BME280;20097;50.832;19.100;2023-02-16T05:16:09;98989.41;;;-0.67;100.00
33781;BME280;20097;50.832;19.100;2023-02-16T05:21:16;98981.53;;;-0.64;100.00
33781;BME280;20097;50.832;19.100;2023-02-16T05:26:39;98980.00;;;-0.67;100.00
33781;BME280;20097;50.832;19.100;2023-02-16T05:31:43;98990.75;;;-0.76;100.00
33781;BME280;20097;50.832;19.100;2023-02-16T05:36:49;98999.38;;;-0.77;100.00
33781;BME280;20097;50.832;19.100;2023-02-16T05:41:54;99008.69;;;-0.76;100.00
33781;BME280;20097;50.832;19.100;2023-02-16T05:46:59;99010.31;;;-0.75;100.00
33781;BME280;20097;50.832;19.100;2023-02-16T05:52:05;99009.44;;;-0.74;100.00
33781;BME280;20097;50.832;19.100;2023-02-16T05:57:09;99019.69;;;-0.74;100.00
33781;BME280;20097;50.832;19.100;2023-02-16T06:02:15;99024.06;;;-0.76;100.00
33781;BME280;20097;50.832;19.100;2023-02-16T06:07:20;99007.72;;;-0.73;100.00
33781;BME280;20097;50.832;19.100;2023-02-16T06:12:25;99016.47;;;-0.77;100.00
33781;BME280;20097;50.832;19.100;2023-02-16T06:17:29;99006.03;;;-0.74;100.00
33781;BME280;20097;50.832;19.100;2023-02-16T06:22:37;99022.72;;;-0.67;100.00
33781;BME280;20097;50.832;19.100;2023-02-16T06:27:41;99024.38;;;-0.66;100.00
33781;BME280;20097;50.832;19.100;2023-02-16T06:32:45;99021.50;;;-0.60;100.00
33781;BME280;20097;50.832;19.100;2023-02-16T06:37:51;99025.16;;;-0.50;100.00
33781;BME280;20097;50.832;19.100;2023-02-16T06:42:56;99024.00;;;-0.45;100.00
33781;BME280;20097;50.832;19.100;2023-02-16T06:48:00;99022.75;;;-0.38;100.00
33781;BME280;20097;50.832;19.100;2023-02-16T06:53:06;99018.78;;;-0.29;100.00
33781;BME280;20097;50.832;19.100;2023-02-16T06:58:11;99024.50;;;-0.24;100.00
33781;BME280;20097;50.832;19.100;2023-02-16T07:03:16;99014.97;;;-0.08;100.00
33781;BME280;20097;50.832;19.100;2023-02-16T07:08:22;99014.25;;;0.04;100.00
33781;BME280;20097;50.832;19.100;2023-02-16T07:13:26;99007.59;;;0.16;100.00
33781;BME280;20097;50.832;19.100;2023-02-16T07:18:32;99014.56;;;0.28;100.00
33781;BME280;20097;50.832;19.100;2023-02-16T07:23:37;99009.41;;;0.42;100.00
33781;BME280;20097;50.832;19.100;2023-02-16T07:28:42;99005.91;;;0.57;100.00
33781;BME280;20097;50.832;19.100;2023-02-16T07:33:46;99009.91;;;0.75;100.00
33781;BME280;20097;50.832;19.100;2023-02-16T07:38:52;99014.72;;;0.93;100.00
33781;BME280;20097;50.832;19.100;2023-02-16T07:43:57;99010.06;;;1.12;100.00
33781;BME280;20097;50.832;19.100;2023-02-16T07:49:02;99014.56;;;1.35;100.00
33781;BME280;20097;50.832;19.100;2023-02-16T07:54:09;99011.84;;;1.51;100.00
33781;BME280;20097;50.832;19.100;2023-02-16T07:59:14;99020.28;;;1.66;100.00
33781;BME280;20097;50.832;19.100;2023-02-16T08:04:19;99022.56;;;1.83;100.00
33781;BME280;20097;50.832;19.100;2023-02-16T08:09:25;99023.41;;;1.96;100.00
33781;BME280;20097;50.832;19.100;2023-02-16T08:14:30;99019.28;;;2.18;100.00
33781;BME280;20097;50.832;19.100;2023-02-16T08:19:34;99039.59;;;2.35;100.00
33781;BME280;20097;50.832;19.100;2023-02-16T08:24:40;99024.69;;;2.64;100.00
33781;BME280;20097;50.832;19.100;2023-02-16T08:29:45;99024.13;;;2.84;100.00
33781;BME280;20097;50.832;19.100;2023-02-16T08:34:49;99015.00;;;3.04;100.00
33781;BME280;20097;50.832;19.100;2023-02-16T08:39:55;99017.84;;;3.12;100.00
33781;BME280;20097;50.832;19.100;2023-02-16T08:45:03;99025.00;;;3.32;100.00
33781;BME280;20097;50.832;19.100;2023-02-16T08:50:09;99026.41;;;3.36;100.00
33781;BME280;20097;50.832;19.100;2023-02-16T08:55:15;99021.88;;;3.50;100.00
33781;BME280;20097;50.832;19.100;2023-02-16T09:00:20;99025.72;;;3.79;100.00
33781;BME280;20097;50.832;19.100;2023-02-16T09:05:37;99020.47;;;3.92;100.00
33781;BME280;20097;50.832;19.100;2023-02-16T09:10:44;99028.13;;;4.04;100.00
33781;BME280;20097;50.832;19.100;2023-02-16T09:15:48;99018.06;;;4.23;100.00
33781;BME280;20097;50.832;19.100;2023-02-16T09:20:52;99026.16;;;4.41;100.00
33781;BME280;20097;50.832;19.100;2023-02-16T09:25:59;99031.81;;;4.57;100.00
33781;BME280;20097;50.832;19.100;2023-02-16T09:31:09;99023.34;;;4.66;100.00
33781;BME280;20097;50.832;19.100;2023-02-16T09:36:14;99017.94;;;4.69;100.00
33781;BME280;20097;50.832;19.100;2023-02-16T09:41:24;99017.69;;;4.72;100.00
33781;BME280;20097;50.832;19.100;2023-02-16T09:46:32;99018.72;;;4.92;100.00
33781;BME280;20097;50.832;19.100;2023-02-16T09:51:39;99023.38;;;5.20;100.00
33781;BME280;20097;50.832;19.100;2023-02-16T09:56:55;99018.41;;;5.28;96.68
33781;BME280;20097;50.832;19.100;2023-02-16T10:02:26;99000.69;;;5.44;94.53
33781;BME280;20097;50.832;19.100;2023-02-16T10:07:46;99000.38;;;5.58;93.30
33781;BME280;20097;50.832;19.100;2023-02-16T10:13:00;98983.84;;;5.70;92.07
33781;BME280;20097;50.832;19.100;2023-02-16T10:18:18;98991.19;;;5.86;90.46
33781;BME280;20097;50.832;19.100;2023-02-16T10:23:36;98976.53;;;5.96;88.55
33781;BME280;20097;50.832;19.100;2023-02-16T10:28:47;98970.94;;;6.21;88.61
33781;BME280;20097;50.832;19.100;2023-02-16T10:34:16;98973.13;;;6.25;86.20
33781;BME280;20097;50.832;19.100;2023-02-16T10:39:29;98973.13;;;6.25;85.08
33781;BME280;20097;50.832;19.100;2023-02-16T10:44:46;98967.44;;;6.41;84.02
33781;BME280;20097;50.832;19.100;2023-02-16T10:49:54;98969.03;;;6.62;84.47
33781;BME280;20097;50.832;19.100;2023-02-16T10:54:59;98952.72;;;6.81;82.80
33781;BME280;20097;50.832;19.100;2023-02-16T11:00:10;98955.31;;;7.00;83.38
33781;BME280;20097;50.832;19.100;2023-02-16T11:05:34;98958.19;;;7.07;80.59
33781;BME280;20097;50.832;19.100;2023-02-16T11:10:44;98944.97;;;7.38;81.31
33781;BME280;20097;50.832;19.100;2023-02-16T11:15:55;98945.91;;;7.37;76.05
33781;BME280;20097;50.832;19.100;2023-02-16T11:21:01;98952.84;;;7.37;75.90
33781;BME280;20097;50.832;19.100;2023-02-16T11:26:20;98955.06;;;7.41;75.51
33781;BME280;20097;50.832;19.100;2023-02-16T11:31:32;98938.34;;;7.63;75.98
33781;BME280;20097;50.832;19.100;2023-02-16T11:36:41;98936.31;;;7.57;74.54
33781;BME280;20097;50.832;19.100;2023-02-16T11:41:50;98927.69;;;7.66;75.10
33781;BME280;20097;50.832;19.100;2023-02-16T11:46:58;98944.47;;;7.81;75.37
33781;BME280;20097;50.832;19.100;2023-02-16T11:52:22;98938.78;;;8.14;74.18
33781;BME280;20097;50.832;19.100;2023-02-16T11:57:30;98934.44;;;8.05;72.83
33781;BME280;20097;50.832;19.100;2023-02-16T12:03:04;98940.31;;;8.44;71.47
33781;BME280;20097;50.832;19.100;2023-02-16T12:08:31;98934.91;;;8.55;69.97
33781;BME280;20097;50.832;19.100;2023-02-16T12:13:47;98924.25;;;8.75;68.78
33781;BME280;20097;50.832;19.100;2023-02-16T12:19:14;98928.28;;;8.87;68.06
33781;BME280;20097;50.832;19.100;2023-02-16T12:24:33;98919.03;;;8.75;67.81
33781;BME280;20097;50.832;19.100;2023-02-16T12:29:51;98911.16;;;8.67;67.73
33781;BME280;20097;50.832;19.100;2023-02-16T12:35:18;98902.09;;;8.89;68.31
33781;BME280;20097;50.832;19.100;2023-02-16T12:40:37;98905.84;;;9.04;67.99
33781;BME280;20097;50.832;19.100;2023-02-16T12:45:46;98906.69;;;9.12;68.27
33781;BME280;20097;50.832;19.100;2023-02-16T12:50:54;98885.94;;;9.38;67.57
33781;BME280;20097;50.832;19.100;2023-02-16T12:56:03;98874.44;;;9.48;66.94
33781;BME280;20097;50.832;19.100;2023-02-16T13:01:16;98882.78;;;9.52;66.38
33781;BME280;20097;50.832;19.100;2023-02-16T13:06:29;98875.06;;;9.42;66.42
33781;BME280;20097;50.832;19.100;2023-02-16T13:11:39;98864.88;;;9.57;67.13
33781;BME280;20097;50.832;19.100;2023-02-16T13:16:52;98857.47;;;9.44;66.81
33781;BME280;20097;50.832;19.100;2023-02-16T13:22:35;98857.75;;;9.33;67.34
33781;BME280;20097;50.832;19.100;2023-02-16T13:27:50;98859.72;;;9.39;67.94
33781;BME280;20097;50.832;19.100;2023-02-16T13:33:27;98859.31;;;9.26;68.37
33781;BME280;20097;50.832;19.100;2023-02-16T13:44:29;98848.25;;;8.89;69.68
33781;BME280;20097;50.832;19.100;2023-02-16T13:49:39;98848.19;;;8.81;70.99
33781;BME280;20097;50.832;19.100;2023-02-16T13:54:48;98858.00;;;8.70;71.74
33781;BME280;20097;50.832;19.100;2023-02-16T14:00:00;98844.16;;;8.69;71.49
33781;BME280;20097;50.832;19.100;2023-02-16T14:05:25;98839.09;;;8.50;71.45
33781;BME280;20097;50.832;19.100;2023-02-16T14:11:09;98835.66;;;8.50;71.45
33781;BME280;20097;50.832;19.100;2023-02-16T14:16:29;98839.19;;;8.58;70.66
33781;BME280;20097;50.832;19.100;2023-02-16T14:21:39;98842.09;;;8.55;71.32
33781;BME280;20097;50.832;19.100;2023-02-16T14:26:55;98843.03;;;8.54;71.99
33781;BME280;20097;50.832;19.100;2023-02-16T14:32:14;98858.06;;;8.60;71.99
33781;BME280;20097;50.832;19.100;2023-02-16T14:37:35;98852.19;;;8.76;72.22
33781;BME280;20097;50.832;19.100;2023-02-16T14:42:50;98845.84;;;8.78;73.61
33781;BME280;20097;50.832;19.100;2023-02-16T14:48:06;98849.22;;;8.71;73.58
33781;BME280;20097;50.832;19.100;2023-02-16T14:54:04;98855.94;;;8.46;72.28
33781;BME280;20097;50.832;19.100;2023-02-16T14:59:25;98854.69;;;8.32;72.20
33781;BME280;20097;50.832;19.100;2023-02-16T15:04:33;98857.88;;;8.17;72.43
33781;BME280;20097;50.832;19.100;2023-02-16T15:09:41;98840.56;;;8.08;73.56
33781;BME280;20097;50.832;19.100;2023-02-16T15:14:49;98840.69;;;8.06;74.74
33781;BME280;20097;50.832;19.100;2023-02-16T15:20:00;98832.31;;;7.85;77.08
33781;BME280;20097;50.832;19.100;2023-02-16T15:25:21;98838.41;;;7.67;78.00
33781;BME280;20097;50.832;19.100;2023-02-16T15:30:29;98830.66;;;7.48;79.30
33781;BME280;20097;50.832;19.100;2023-02-16T15:35:36;98824.03;;;7.17;81.55
33781;BME280;20097;50.832;19.100;2023-02-16T15:40:41;98818.03;;;7.07;83.29
33781;BME280;20097;50.832;19.100;2023-02-16T15:45:50;98822.28;;;6.88;84.97
33781;BME280;20097;50.832;19.100;2023-02-16T15:51:04;98816.13;;;6.70;86.49
33781;BME280;20097;50.832;19.100;2023-02-16T15:56:35;98803.44;;;6.48;88.37
33781;BME280;20097;50.832;19.100;2023-02-16T16:01:42;98798.50;;;6.26;91.16
33781;BME280;20097;50.832;19.100;2023-02-16T16:06:47;98807.22;;;6.06;93.09
33781;BME280;20097;50.832;19.100;2023-02-16T16:11:57;98807.69;;;5.91;94.05
33781;BME280;20097;50.832;19.100;2023-02-16T16:17:04;98805.72;;;5.74;96.11
33781;BME280;20097;50.832;19.100;2023-02-16T16:22:30;98799.88;;;5.51;100.00
33781;BME280;20097;50.832;19.100;2023-02-16T16:27:36;98804.47;;;5.38;100.00
33781;BME280;20097;50.832;19.100;2023-02-16T16:33:01;98805.22;;;5.29;100.00
33781;BME280;20097;50.832;19.100;2023-02-16T16:38:20;98808.84;;;5.17;100.00
33781;BME280;20097;50.832;19.100;2023-02-16T16:43:28;98810.94;;;5.02;100.00
33781;BME280;20097;50.832;19.100;2023-02-16T16:48:35;98816.97;;;4.92;100.00
33781;BME280;20097;50.832;19.100;2023-02-16T16:53:51;98820.44;;;4.81;100.00
33781;BME280;20097;50.832;19.100;2023-02-16T16:58:57;98810.84;;;4.72;100.00
33781;BME280;20097;50.832;19.100;2023-02-16T17:04:03;98801.72;;;4.57;100.00
33781;BME280;20097;50.832;19.100;2023-02-16T17:09:08;98812.69;;;4.50;100.00
33781;BME280;20097;50.832;19.100;2023-02-16T17:14:16;98799.69;;;4.40;100.00
33781;BME280;20097;50.832;19.100;2023-02-16T17:19:23;98807.81;;;4.24;100.00
33781;BME280;20097;50.832;19.100;2023-02-16T17:24:31;98810.31;;;4.15;100.00
33781;BME280;20097;50.832;19.100;2023-02-16T17:29:35;98809.88;;;3.99;100.00
33781;BME280;20097;50.832;19.100;2023-02-16T17:34:41;98810.38;;;3.93;100.00
33781;BME280;20097;50.832;19.100;2023-02-16T17:39:46;98811.66;;;3.87;100.00
33781;BME280;20097;50.832;19.100;2023-02-16T17:44:51;98816.22;;;3.84;100.00
33781;BME280;20097;50.832;19.100;2023-02-16T17:49:57;98808.88;;;3.68;100.00
33781;BME280;20097;50.832;19.100;2023-02-16T17:55:02;98815.31;;;3.63;100.00
33781;BME280;20097;50.832;19.100;2023-02-16T18:00:15;98819.31;;;3.56;100.00
33781;BME280;20097;50.832;19.100;2023-02-16T18:05:22;98824.13;;;3.49;100.00
33781;BME280;20097;50.832;19.100;2023-02-16T18:10:46;98820.81;;;3.36;100.00
33781;BME280;20097;50.832;19.100;2023-02-16T18:15:52;98823.28;;;3.27;100.00
33781;BME280;20097;50.832;19.100;2023-02-16T18:20:57;98819.38;;;3.10;100.00
33781;BME280;20097;50.832;19.100;2023-02-16T18:26:03;98827.66;;;3.03;100.00
33781;BME280;20097;50.832;19.100;2023-02-16T18:31:08;98828.47;;;2.92;100.00
33781;BME280;20097;50.832;19.100;2023-02-16T18:36:14;98836.66;;;2.86;100.00
33781;BME280;20097;50.832;19.100;2023-02-16T18:41:19;98836.47;;;2.76;100.00
33781;BME280;20097;50.832;19.100;2023-02-16T18:46:24;98830.03;;;2.71;100.00
33781;BME280;20097;50.832;19.100;2023-02-16T18:51:28;98832.97;;;2.66;100.00
33781;BME280;20097;50.832;19.100;2023-02-16T18:56:35;98828.94;;;2.62;100.00
33781;BME280;20097;50.832;19.100;2023-02-16T19:01:41;98829.16;;;2.59;100.00
33781;BME280;20097;50.832;19.100;2023-02-16T19:06:45;98831.38;;;2.53;100.00
33781;BME280;20097;50.832;19.100;2023-02-16T19:11:51;98827.81;;;2.43;100.00
33781;BME280;20097;50.832;19.100;2023-02-16T19:16:56;98824.63;;;2.39;100.00
33781;BME280;20097;50.832;19.100;2023-02-16T19:22:00;98830.81;;;2.37;100.00
33781;BME280;20097;50.832;19.100;2023-02-16T19:27:06;98830.59;;;2.40;100.00
33781;BME280;20097;50.832;19.100;2023-02-16T19:32:11;98832.78;;;2.33;100.00
33781;BME280;20097;50.832;19.100;2023-02-16T19:37:15;98825.28;;;2.30;100.00
33781;BME280;20097;50.832;19.100;2023-02-16T19:42:21;98812.31;;;2.32;100.00
33781;BME280;20097;50.832;19.100;2023-02-16T19:47:26;98803.34;;;2.25;100.00
33781;BME280;20097;50.832;19.100;2023-02-16T19:52:30;98813.44;;;2.28;100.00
33781;BME280;20097;50.832;19.100;2023-02-16T19:57:35;98809.22;;;2.27;100.00
33781;BME280;20097;50.832;19.100;2023-02-16T20:02:40;98817.19;;;2.24;100.00
33781;BME280;20097;50.832;19.100;2023-02-16T20:07:44;98829.22;;;2.23;100.00
33781;BME280;20097;50.832;19.100;2023-02-16T20:12:50;98831.81;;;2.23;100.00
33781;BME280;20097;50.832;19.100;2023-02-16T20:17:54;98827.81;;;2.19;100.00
33781;BME280;20097;50.832;19.100;2023-02-16T20:22:59;98819.97;;;2.21;100.00
33781;BME280;20097;50.832;19.100;2023-02-16T20:28:05;98831.19;;;2.20;100.00
33781;BME280;20097;50.832;19.100;2023-02-16T20:33:09;98828.22;;;2.13;100.00
33781;BME280;20097;50.832;19.100;2023-02-16T20:38:14;98823.63;;;2.06;100.00
33781;BME280;20097;50.832;19.100;2023-02-16T20:43:20;98833.31;;;2.02;100.00
33781;BME280;20097;50.832;19.100;2023-02-16T20:48:25;98832.69;;;1.99;100.00
33781;BME280;20097;50.832;19.100;2023-02-16T20:53:29;98831.91;;;1.98;100.00
33781;BME280;20097;50.832;19.100;2023-02-16T20:58:37;98826.13;;;1.95;100.00
33781;BME280;20097;50.832;19.100;2023-02-16T21:03:42;98828.41;;;1.87;100.00
33781;BME280;20097;50.832;19.100;2023-02-16T21:08:46;98825.56;;;1.79;100.00
33781;BME280;20097;50.832;19.100;2023-02-16T21:13:53;98813.81;;;1.75;100.00
33781;BME280;20097;50.832;19.100;2023-02-16T21:18:58;98815.66;;;1.73;100.00
33781;BME280;20097;50.832;19.100;2023-02-16T21:24:02;98808.06;;;1.71;100.00
33781;BME280;20097;50.832;19.100;2023-02-16T21:29:08;98811.56;;;1.70;100.00
33781;BME280;20097;50.832;19.100;2023-02-16T21:34:13;98803.84;;;1.70;100.00
33781;BME280;20097;50.832;19.100;2023-02-16T21:39:18;98802.50;;;1.65;100.00
33781;BME280;20097;50.832;19.100;2023-02-16T21:44:43;98797.69;;;1.60;100.00
33781;BME280;20097;50.832;19.100;2023-02-16T21:49:52;98795.94;;;1.61;100.00
33781;BME280;20097;50.832;19.100;2023-02-16T21:54:56;98799.25;;;1.63;100.00
33781;BME280;20097;50.832;19.100;2023-02-16T22:00:20;98804.38;;;1.63;100.00
33781;BME280;20097;50.832;19.100;2023-02-16T22:05:24;98804.88;;;1.68;100.00
33781;BME280;20097;50.832;19.100;2023-02-16T22:10:29;98806.00;;;1.76;100.00
33781;BME280;20097;50.832;19.100;2023-02-16T22:15:35;98805.16;;;1.76;100.00
33781;BME280;20097;50.832;19.100;2023-02-16T22:20:40;98801.88;;;1.74;100.00
33781;BME280;20097;50.832;19.100;2023-02-16T22:25:44;98804.47;;;1.74;100.00
33781;BME280;20097;50.832;19.100;2023-02-16T22:30:50;98807.72;;;1.76;100.00
33781;BME280;20097;50.832;19.100;2023-02-16T22:35:55;98797.38;;;1.65;100.00
33781;BME280;20097;50.832;19.100;2023-02-16T22:41:04;98815.66;;;1.73;100.00
33781;BME280;20097;50.832;19.100;2023-02-16T22:46:14;98809.63;;;1.74;100.00
33781;BME280;20097;50.832;19.100;2023-02-16T22:51:20;98807.88;;;1.62;100.00
33781;BME280;20097;50.832;19.100;2023-02-16T22:56:25;98803.34;;;1.65;100.00
33781;BME280;20097;50.832;19.100;2023-02-16T23:01:32;98804.97;;;1.66;100.00
33781;BME280;20097;50.832;19.100;2023-02-16T23:06:36;98799.03;;;1.66;100.00
33781;BME280;20097;50.832;19.100;2023-02-16T23:11:41;98795.31;;;1.70;100.00
33781;BME280;20097;50.832;19.100;2023-02-16T23:16:49;98794.16;;;1.74;100.00
33781;BME280;20097;50.832;19.100;2023-02-16T23:21:55;98787.06;;;1.65;100.00
33781;BME280;20097;50.832;19.100;2023-02-16T23:26:59;98779.88;;;1.70;100.00
33781;BME280;20097;50.832;19.100;2023-02-16T23:32:05;98782.53;;;1.68;100.00
33781;BME280;20097;50.832;19.100;2023-02-16T23:37:10;98785.84;;;1.70;100.00
33781;BME280;20097;50.832;19.100;2023-02-16T23:42:14;98775.66;;;1.69;100.00
33781;BME280;20097;50.832;19.100;2023-02-16T23:47:20;98781.53;;;1.71;100.00
33781;BME280;20097;50.832;19.100;2023-02-16T23:52:25;98769.84;;;1.78;100.00
33781;BME280;20097;50.832;19.100;2023-02-16T23:57:29;98777.06;;;1.85;100.00
